Huvudsida
METAR-TAF:

METAR-TAF

Flygplatser :

Oslo flygplats. Gardermoen

Oslo, Norge

latitud: 60-12N, longitud: 011-05E, höjd: 208 m

Aktuellt väderrapport

Denna rapport gjordes för 22 minuter sedan, klockan 04:50 UTC
Vind 1 kt varierande vindriktning
Temperatur 4°C
Fuktighet 87%
Tryck 1038 hPa
Sikt 10 km eller mer
Mulet på en höjd av 800 ft

METAR: ENGM 170450Z VRB01KT 9999 OVC008 04/02 Q1038 NOSIG

Tid: 06:12 (05:12 UTC)

Väderprognos

Prognos gäller från 17 kl. 00 UTC till 17 kl. 24 UTC
Vind 5 kt varierande vindriktning
Sikt 10 km eller mer
Brutna moln på en höjd av 1600 ft
Temporärt
från 17 kl. 00 UTC till 17 kl. 18 UTC
Brutna moln på en höjd av 800 ft
Sannolikhet 30%
från 17 kl. 20 UTC till 17 kl. 24 UTC
Sikt: 0500 m
på en höjd av 100 ft
dimma

TAF: ENGM 1700/1724 VRB05KT 9999 BKN016 TEMPO 1700/1718 BKN008 PROB30 1720/1724 0500 FG VV001

Aktuella väderrapporter och prognoser från 4000 flygplatser (METAR- och TAF-rapporter).

De tillgängliga stationerna syns som gula och röda prickar på kartan.

För musen över prickarna för att se namnen på stationerna.

Klicka sedan för att få väderrapporter och prognoser.

För att ändra kartan: Klicka på de gröna knapparna med ett svart kors på för att zooma in; den gröna knappen med ett streck på för att zooma ut; eller på de gröna pilarna för angränsande kartor.


METAR-TAF: